sensor_id;sensor_type;location;lat;lon;timestamp;P1;durP1;ratioP1;P2;durP2;ratioP2
23078;SDS011;11707;50.830;4.364;2023-04-24T00:01:52;17.70;;;10.88;;
23078;SDS011;11707;50.830;4.364;2023-04-24T00:04:17;23.15;;;10.70;;
23078;SDS011;11707;50.830;4.364;2023-04-24T00:06:43;21.80;;;12.77;;
23078;SDS011;11707;50.830;4.364;2023-04-24T00:09:09;23.38;;;12.77;;
23078;SDS011;11707;50.830;4.364;2023-04-24T00:11:35;21.35;;;12.02;;
23078;SDS011;11707;50.830;4.364;2023-04-24T00:14:02;25.25;;;13.70;;
23078;SDS011;11707;50.830;4.364;2023-04-24T00:16:27;25.70;;;14.07;;
23078;SDS011;11707;50.830;4.364;2023-04-24T00:18:53;24.83;;;14.25;;
23078;SDS011;11707;50.830;4.364;2023-04-24T00:21:19;20.75;;;13.93;;
23078;SDS011;11707;50.830;4.364;2023-04-24T00:23:46;25.10;;;13.20;;
23078;SDS011;11707;50.830;4.364;2023-04-24T00:26:13;23.08;;;13.13;;
23078;SDS011;11707;50.830;4.364;2023-04-24T00:28:39;22.80;;;13.32;;
23078;SDS011;11707;50.830;4.364;2023-04-24T00:31:05;20.42;;;13.20;;
23078;SDS011;11707;50.830;4.364;2023-04-24T00:33:33;26.77;;;13.65;;
23078;SDS011;11707;50.830;4.364;2023-04-24T00:35:59;21.52;;;13.85;;
23078;SDS011;11707;50.830;4.364;2023-04-24T00:38:24;24.17;;;13.65;;
23078;SDS011;11707;50.830;4.364;2023-04-24T00:40:50;25.42;;;13.55;;
23078;SDS011;11707;50.830;4.364;2023-04-24T00:43:19;25.50;;;14.30;;
23078;SDS011;11707;50.830;4.364;2023-04-24T00:45:44;23.17;;;13.10;;
23078;SDS011;11707;50.830;4.364;2023-04-24T00:48:12;23.25;;;13.38;;
23078;SDS011;11707;50.830;4.364;2023-04-24T00:50:39;25.75;;;13.20;;
23078;SDS011;11707;50.830;4.364;2023-04-24T00:53:07;23.80;;;13.55;;
23078;SDS011;11707;50.830;4.364;2023-04-24T00:55:33;22.13;;;12.68;;
23078;SDS011;11707;50.830;4.364;2023-04-24T00:57:59;26.50;;;13.77;;
23078;SDS011;11707;50.830;4.364;2023-04-24T01:00:25;26.50;;;13.80;;
23078;SDS011;11707;50.830;4.364;2023-04-24T01:02:51;23.33;;;13.00;;
23078;SDS011;11707;50.830;4.364;2023-04-24T01:05:20;22.20;;;13.82;;
23078;SDS011;11707;50.830;4.364;2023-04-24T01:07:48;20.60;;;13.00;;
23078;SDS011;11707;50.830;4.364;2023-04-24T01:10:14;24.10;;;14.63;;
23078;SDS011;11707;50.830;4.364;2023-04-24T01:12:42;26.60;;;13.48;;
23078;SDS011;11707;50.830;4.364;2023-04-24T01:15:08;25.90;;;12.80;;
23078;SDS011;11707;50.830;4.364;2023-04-24T01:17:37;24.48;;;14.68;;
23078;SDS011;11707;50.830;4.364;2023-04-24T01:20:04;24.00;;;12.98;;
23078;SDS011;11707;50.830;4.364;2023-04-24T01:22:31;19.92;;;13.60;;
23078;SDS011;11707;50.830;4.364;2023-04-24T01:24:58;28.13;;;13.00;;
23078;SDS011;11707;50.830;4.364;2023-04-24T01:27:24;21.20;;;13.80;;
23078;SDS011;11707;50.830;4.364;2023-04-24T01:29:52;21.45;;;13.52;;
23078;SDS011;11707;50.830;4.364;2023-04-24T01:32:19;27.40;;;14.25;;
23078;SDS011;11707;50.830;4.364;2023-04-24T01:34:45;17.08;;;12.65;;
23078;SDS011;11707;50.830;4.364;2023-04-24T01:37:11;21.67;;;12.50;;
23078;SDS011;11707;50.830;4.364;2023-04-24T01:39:37;19.35;;;11.40;;
23078;SDS011;11707;50.830;4.364;2023-04-24T01:42:04;21.05;;;11.75;;
23078;SDS011;11707;50.830;4.364;2023-04-24T01:44:33;19.27;;;11.95;;
23078;SDS011;11707;50.830;4.364;2023-04-24T01:46:59;18.70;;;12.65;;
23078;SDS011;11707;50.830;4.364;2023-04-24T01:49:26;22.13;;;12.63;;
23078;SDS011;11707;50.830;4.364;2023-04-24T01:51:52;20.00;;;12.25;;
23078;SDS011;11707;50.830;4.364;2023-04-24T01:54:17;18.35;;;12.10;;
23078;SDS011;11707;50.830;4.364;2023-04-24T01:56:44;16.83;;;11.50;;
23078;SDS011;11707;50.830;4.364;2023-04-24T01:59:11;21.67;;;12.43;;
23078;SDS011;11707;50.830;4.364;2023-04-24T02:01:37;20.40;;;14.48;;
23078;SDS011;11707;50.830;4.364;2023-04-24T02:04:06;20.58;;;13.60;;
23078;SDS011;11707;50.830;4.364;2023-04-24T02:06:32;23.48;;;13.48;;
23078;SDS011;11707;50.830;4.364;2023-04-24T02:09:00;21.60;;;14.20;;
23078;SDS011;11707;50.830;4.364;2023-04-24T02:11:27;25.58;;;16.45;;
23078;SDS011;11707;50.830;4.364;2023-04-24T02:13:53;32.15;;;18.20;;
23078;SDS011;11707;50.830;4.364;2023-04-24T02:16:21;28.67;;;18.55;;
23078;SDS011;11707;50.830;4.364;2023-04-24T02:18:47;27.30;;;18.05;;
23078;SDS011;11707;50.830;4.364;2023-04-24T02:21:13;28.42;;;17.63;;
23078;SDS011;11707;50.830;4.364;2023-04-24T02:23:41;19.92;;;15.85;;
23078;SDS011;11707;50.830;4.364;2023-04-24T02:26:06;23.60;;;17.13;;
23078;SDS011;11707;50.830;4.364;2023-04-24T02:28:32;20.58;;;13.98;;
23078;SDS011;11707;50.830;4.364;2023-04-24T02:30:58;30.67;;;17.83;;
23078;SDS011;11707;50.830;4.364;2023-04-24T02:33:24;30.42;;;18.17;;
23078;SDS011;11707;50.830;4.364;2023-04-24T02:35:50;30.38;;;16.75;;
23078;SDS011;11707;50.830;4.364;2023-04-24T02:38:16;26.00;;;16.17;;
23078;SDS011;11707;50.830;4.364;2023-04-24T02:40:44;24.92;;;15.65;;
23078;SDS011;11707;50.830;4.364;2023-04-24T02:43:10;23.20;;;16.90;;
23078;SDS011;11707;50.830;4.364;2023-04-24T02:45:36;24.50;;;16.42;;
23078;SDS011;11707;50.830;4.364;2023-04-24T02:48:03;23.88;;;15.95;;
23078;SDS011;11707;50.830;4.364;2023-04-24T02:50:28;24.45;;;15.80;;
23078;SDS011;11707;50.830;4.364;2023-04-24T02:52:56;20.05;;;15.38;;
23078;SDS011;11707;50.830;4.364;2023-04-24T02:55:22;20.13;;;14.77;;
23078;SDS011;11707;50.830;4.364;2023-04-24T02:57:48;25.83;;;14.85;;
23078;SDS011;11707;50.830;4.364;2023-04-24T03:00:19;21.00;;;14.95;;
23078;SDS011;11707;50.830;4.364;2023-04-24T03:02:45;19.15;;;13.65;;
23078;SDS011;11707;50.830;4.364;2023-04-24T03:05:11;23.02;;;13.98;;
23078;SDS011;11707;50.830;4.364;2023-04-24T03:07:41;18.13;;;13.05;;
23078;SDS011;11707;50.830;4.364;2023-04-24T03:10:07;21.40;;;13.05;;
23078;SDS011;11707;50.830;4.364;2023-04-24T03:12:33;21.42;;;12.98;;
23078;SDS011;11707;50.830;4.364;2023-04-24T03:14:59;21.63;;;13.07;;
23078;SDS011;11707;50.830;4.364;2023-04-24T03:17:25;21.08;;;12.55;;
23078;SDS011;11707;50.830;4.364;2023-04-24T03:19:53;21.42;;;12.55;;
23078;SDS011;11707;50.830;4.364;2023-04-24T03:22:19;20.52;;;12.43;;
23078;SDS011;11707;50.830;4.364;2023-04-24T03:24:47;16.75;;;11.25;;
23078;SDS011;11707;50.830;4.364;2023-04-24T03:27:13;18.33;;;12.23;;
23078;SDS011;11707;50.830;4.364;2023-04-24T03:29:39;15.18;;;10.88;;
23078;SDS011;11707;50.830;4.364;2023-04-24T03:32:04;16.17;;;12.43;;
23078;SDS011;11707;50.830;4.364;2023-04-24T03:34:30;15.98;;;11.48;;
23078;SDS011;11707;50.830;4.364;2023-04-24T03:36:56;16.00;;;11.35;;
23078;SDS011;11707;50.830;4.364;2023-04-24T03:39:21;19.42;;;11.65;;
23078;SDS011;11707;50.830;4.364;2023-04-24T03:41:47;15.82;;;9.13;;
23078;SDS011;11707;50.830;4.364;2023-04-24T03:44:13;10.80;;;8.45;;
23078;SDS011;11707;50.830;4.364;2023-04-24T03:46:39;17.10;;;10.52;;
23078;SDS011;11707;50.830;4.364;2023-04-24T03:49:05;15.77;;;9.80;;
23078;SDS011;11707;50.830;4.364;2023-04-24T03:51:30;16.42;;;10.93;;
23078;SDS011;11707;50.830;4.364;2023-04-24T03:53:57;16.90;;;11.15;;
23078;SDS011;11707;50.830;4.364;2023-04-24T03:56:22;15.30;;;8.77;;
23078;SDS011;11707;50.830;4.364;2023-04-24T03:58:48;17.55;;;9.55;;
23078;SDS011;11707;50.830;4.364;2023-04-24T04:01:14;15.63;;;9.43;;
23078;SDS011;11707;50.830;4.364;2023-04-24T04:03:41;12.32;;;9.05;;
23078;SDS011;11707;50.830;4.364;2023-04-24T04:06:09;16.65;;;9.93;;
23078;SDS011;11707;50.830;4.364;2023-04-24T04:08:38;15.15;;;9.73;;
23078;SDS011;11707;50.830;4.364;2023-04-24T04:11:04;13.32;;;9.07;;
23078;SDS011;11707;50.830;4.364;2023-04-24T04:13:29;13.75;;;8.95;;
23078;SDS011;11707;50.830;4.364;2023-04-24T04:15:55;11.43;;;8.63;;
23078;SDS011;11707;50.830;4.364;2023-04-24T04:18:21;12.95;;;8.77;;
23078;SDS011;11707;50.830;4.364;2023-04-24T04:20:47;14.35;;;8.93;;
23078;SDS011;11707;50.830;4.364;2023-04-24T04:23:13;10.77;;;7.38;;
23078;SDS011;11707;50.830;4.364;2023-04-24T04:25:40;14.05;;;8.32;;
23078;SDS011;11707;50.830;4.364;2023-04-24T04:28:06;20.73;;;9.65;;
23078;SDS011;11707;50.830;4.364;2023-04-24T04:30:32;15.40;;;9.35;;
23078;SDS011;11707;50.830;4.364;2023-04-24T04:32:58;11.95;;;7.55;;
23078;SDS011;11707;50.830;4.364;2023-04-24T04:35:26;11.38;;;7.63;;
23078;SDS011;11707;50.830;4.364;2023-04-24T04:37:52;12.38;;;8.60;;
23078;SDS011;11707;50.830;4.364;2023-04-24T04:40:17;10.45;;;8.00;;
23078;SDS011;11707;50.830;4.364;2023-04-24T04:42:43;12.13;;;8.38;;
23078;SDS011;11707;50.830;4.364;2023-04-24T04:45:11;11.15;;;7.00;;
23078;SDS011;11707;50.830;4.364;2023-04-24T04:47:44;8.98;;;6.65;;
23078;SDS011;11707;50.830;4.364;2023-04-24T04:50:10;12.95;;;8.02;;
23078;SDS011;11707;50.830;4.364;2023-04-24T04:52:41;15.88;;;9.48;;
23078;SDS011;11707;50.830;4.364;2023-04-24T04:55:09;12.95;;;8.10;;
23078;SDS011;11707;50.830;4.364;2023-04-24T04:57:35;15.73;;;10.32;;
23078;SDS011;11707;50.830;4.364;2023-04-24T05:00:01;15.02;;;9.50;;
23078;SDS011;11707;50.830;4.364;2023-04-24T05:02:27;19.25;;;11.10;;
23078;SDS011;11707;50.830;4.364;2023-04-24T05:04:53;19.35;;;11.65;;
23078;SDS011;11707;50.830;4.364;2023-04-24T05:07:18;19.10;;;11.80;;
23078;SDS011;11707;50.830;4.364;2023-04-24T05:09:46;17.67;;;10.85;;
23078;SDS011;11707;50.830;4.364;2023-04-24T05:12:12;15.55;;;11.32;;
23078;SDS011;11707;50.830;4.364;2023-04-24T05:14:38;20.08;;;12.27;;
23078;SDS011;11707;50.830;4.364;2023-04-24T05:17:04;18.15;;;11.90;;
23078;SDS011;11707;50.830;4.364;2023-04-24T05:19:30;18.52;;;12.25;;
23078;SDS011;11707;50.830;4.364;2023-04-24T05:21:57;23.80;;;14.25;;
23078;SDS011;11707;50.830;4.364;2023-04-24T05:24:23;21.90;;;13.75;;
23078;SDS011;11707;50.830;4.364;2023-04-24T05:26:49;18.70;;;12.23;;
23078;SDS011;11707;50.830;4.364;2023-04-24T05:29:17;22.38;;;13.23;;
23078;SDS011;11707;50.830;4.364;2023-04-24T05:31:44;19.50;;;12.57;;
23078;SDS011;11707;50.830;4.364;2023-04-24T05:34:09;25.55;;;13.68;;
23078;SDS011;11707;50.830;4.364;2023-04-24T05:36:37;21.38;;;13.02;;
23078;SDS011;11707;50.830;4.364;2023-04-24T05:39:03;21.95;;;12.50;;
23078;SDS011;11707;50.830;4.364;2023-04-24T05:41:31;17.23;;;12.23;;
23078;SDS011;11707;50.830;4.364;2023-04-24T05:43:57;18.42;;;12.25;;
23078;SDS011;11707;50.830;4.364;2023-04-24T05:46:23;20.98;;;12.20;;
23078;SDS011;11707;50.830;4.364;2023-04-24T05:48:48;21.98;;;12.63;;
23078;SDS011;11707;50.830;4.364;2023-04-24T05:51:14;17.15;;;10.05;;
23078;SDS011;11707;50.830;4.364;2023-04-24T05:53:40;20.25;;;13.10;;
23078;SDS011;11707;50.830;4.364;2023-04-24T05:56:05;22.02;;;13.93;;
23078;SDS011;11707;50.830;4.364;2023-04-24T05:58:33;19.42;;;12.38;;
23078;SDS011;11707;50.830;4.364;2023-04-24T06:00:59;20.65;;;12.82;;
23078;SDS011;11707;50.830;4.364;2023-04-24T06:03:27;17.17;;;12.82;;
23078;SDS011;11707;50.830;4.364;2023-04-24T06:05:53;20.33;;;14.15;;
23078;SDS011;11707;50.830;4.364;2023-04-24T06:08:19;22.45;;;12.02;;
23078;SDS011;11707;50.830;4.364;2023-04-24T06:10:44;19.15;;;10.70;;
23078;SDS011;11707;50.830;4.364;2023-04-24T06:13:10;22.17;;;13.55;;
23078;SDS011;11707;50.830;4.364;2023-04-24T06:15:37;20.02;;;12.73;;
23078;SDS011;11707;50.830;4.364;2023-04-24T06:18:05;21.77;;;15.32;;
23078;SDS011;11707;50.830;4.364;2023-04-24T06:20:31;23.58;;;13.20;;
23078;SDS011;11707;50.830;4.364;2023-04-24T06:22:57;27.60;;;15.05;;
23078;SDS011;11707;50.830;4.364;2023-04-24T06:25:24;24.38;;;14.85;;
23078;SDS011;11707;50.830;4.364;2023-04-24T06:27:51;27.27;;;14.68;;
23078;SDS011;11707;50.830;4.364;2023-04-24T06:30:17;20.42;;;12.30;;
23078;SDS011;11707;50.830;4.364;2023-04-24T06:32:43;27.83;;;14.38;;
23078;SDS011;11707;50.830;4.364;2023-04-24T06:35:08;22.83;;;14.55;;
23078;SDS011;11707;50.830;4.364;2023-04-24T06:37:35;29.08;;;15.70;;
23078;SDS011;11707;50.830;4.364;2023-04-24T06:40:01;21.75;;;15.68;;
23078;SDS011;11707;50.830;4.364;2023-04-24T06:42:26;24.92;;;15.93;;
23078;SDS011;11707;50.830;4.364;2023-04-24T06:44:52;28.65;;;16.58;;
23078;SDS011;11707;50.830;4.364;2023-04-24T06:47:18;29.05;;;17.23;;
23078;SDS011;11707;50.830;4.364;2023-04-24T06:49:44;29.35;;;17.08;;
23078;SDS011;11707;50.830;4.364;2023-04-24T06:52:09;25.67;;;16.45;;
23078;SDS011;11707;50.830;4.364;2023-04-24T06:54:35;30.38;;;17.05;;
23078;SDS011;11707;50.830;4.364;2023-04-24T06:57:01;28.50;;;16.33;;
23078;SDS011;11707;50.830;4.364;2023-04-24T06:59:27;30.55;;;17.63;;
23078;SDS011;11707;50.830;4.364;2023-04-24T07:01:53;29.90;;;17.48;;
23078;SDS011;11707;50.830;4.364;2023-04-24T07:04:20;29.75;;;16.17;;
23078;SDS011;11707;50.830;4.364;2023-04-24T07:06:46;37.65;;;19.92;;
23078;SDS011;11707;50.830;4.364;2023-04-24T07:09:12;26.67;;;14.80;;
23078;SDS011;11707;50.830;4.364;2023-04-24T07:11:43;33.70;;;16.33;;
23078;SDS011;11707;50.830;4.364;2023-04-24T07:14:09;25.27;;;16.27;;
23078;SDS011;11707;50.830;4.364;2023-04-24T07:16:35;30.05;;;15.70;;
23078;SDS011;11707;50.830;4.364;2023-04-24T07:19:01;27.20;;;15.43;;
23078;SDS011;11707;50.830;4.364;2023-04-24T07:21:29;30.48;;;15.05;;
23078;SDS011;11707;50.830;4.364;2023-04-24T07:23:56;26.58;;;15.48;;
23078;SDS011;11707;50.830;4.364;2023-04-24T07:26:21;20.60;;;12.50;;
23078;SDS011;11707;50.830;4.364;2023-04-24T07:28:47;28.88;;;14.15;;
23078;SDS011;11707;50.830;4.364;2023-04-24T07:31:15;22.42;;;14.90;;
23078;SDS011;11707;50.830;4.364;2023-04-24T07:33:41;20.13;;;12.13;;
23078;SDS011;11707;50.830;4.364;2023-04-24T07:36:06;23.10;;;13.80;;
23078;SDS011;11707;50.830;4.364;2023-04-24T07:38:40;19.63;;;12.00;;
23078;SDS011;11707;50.830;4.364;2023-04-24T07:41:07;29.25;;;16.23;;
23078;SDS011;11707;50.830;4.364;2023-04-24T07:43:32;22.85;;;13.52;;
23078;SDS011;11707;50.830;4.364;2023-04-24T07:46:01;26.63;;;15.65;;
23078;SDS011;11707;50.830;4.364;2023-04-24T07:48:27;23.75;;;14.77;;
23078;SDS011;11707;50.830;4.364;2023-04-24T07:50:53;27.02;;;14.05;;
23078;SDS011;11707;50.830;4.364;2023-04-24T07:53:19;27.77;;;13.52;;
23078;SDS011;11707;50.830;4.364;2023-04-24T07:55:45;28.70;;;13.50;;
23078;SDS011;11707;50.830;4.364;2023-04-24T07:58:11;28.38;;;15.10;;
23078;SDS011;11707;50.830;4.364;2023-04-24T08:00:37;26.75;;;13.93;;
23078;SDS011;11707;50.830;4.364;2023-04-24T08:03:03;17.98;;;11.40;;
23078;SDS011;11707;50.830;4.364;2023-04-24T08:05:28;21.30;;;11.18;;
23078;SDS011;11707;50.830;4.364;2023-04-24T08:07:54;17.25;;;8.73;;
23078;SDS011;11707;50.830;4.364;2023-04-24T08:10:21;20.65;;;11.43;;
23078;SDS011;11707;50.830;4.364;2023-04-24T08:12:49;20.02;;;10.93;;
23078;SDS011;11707;50.830;4.364;2023-04-24T08:15:15;16.10;;;9.70;;
23078;SDS011;11707;50.830;4.364;2023-04-24T08:17:43;17.05;;;9.88;;
23078;SDS011;11707;50.830;4.364;2023-04-24T08:20:09;17.70;;;10.30;;
23078;SDS011;11707;50.830;4.364;2023-04-24T08:22:41;14.85;;;8.25;;
23078;SDS011;11707;50.830;4.364;2023-04-24T08:25:08;18.85;;;9.80;;
23078;SDS011;11707;50.830;4.364;2023-04-24T08:27:35;14.40;;;7.15;;
23078;SDS011;11707;50.830;4.364;2023-04-24T08:30:04;16.65;;;7.97;;
23078;SDS011;11707;50.830;4.364;2023-04-24T08:32:33;19.15;;;9.10;;
23078;SDS011;11707;50.830;4.364;2023-04-24T08:34:59;18.08;;;8.57;;
23078;SDS011;11707;50.830;4.364;2023-04-24T08:37:25;16.75;;;7.53;;
23078;SDS011;11707;50.830;4.364;2023-04-24T08:39:52;15.40;;;5.80;;
23078;SDS011;11707;50.830;4.364;2023-04-24T08:42:19;10.98;;;5.95;;
23078;SDS011;11707;50.830;4.364;2023-04-24T08:44:45;15.15;;;6.45;;
23078;SDS011;11707;50.830;4.364;2023-04-24T08:47:11;13.55;;;6.60;;
23078;SDS011;11707;50.830;4.364;2023-04-24T08:49:39;16.67;;;7.18;;
23078;SDS011;11707;50.830;4.364;2023-04-24T08:52:05;17.05;;;6.57;;
23078;SDS011;11707;50.830;4.364;2023-04-24T08:54:31;12.88;;;7.05;;
23078;SDS011;11707;50.830;4.364;2023-04-24T08:57:00;11.75;;;5.30;;
23078;SDS011;11707;50.830;4.364;2023-04-24T08:59:31;13.98;;;5.45;;
23078;SDS011;11707;50.830;4.364;2023-04-24T09:02:00;9.18;;;5.43;;
23078;SDS011;11707;50.830;4.364;2023-04-24T09:04:28;9.48;;;4.80;;
23078;SDS011;11707;50.830;4.364;2023-04-24T09:06:55;12.38;;;5.70;;
23078;SDS011;11707;50.830;4.364;2023-04-24T09:09:22;11.05;;;4.80;;
23078;SDS011;11707;50.830;4.364;2023-04-24T09:11:50;8.43;;;4.55;;
23078;SDS011;11707;50.830;4.364;2023-04-24T09:14:18;9.73;;;4.25;;
23078;SDS011;11707;50.830;4.364;2023-04-24T09:16:44;9.98;;;4.20;;
23078;SDS011;11707;50.830;4.364;2023-04-24T09:19:11;12.20;;;3.38;;
23078;SDS011;11707;50.830;4.364;2023-04-24T09:21:36;10.90;;;3.45;;
23078;SDS011;11707;50.830;4.364;2023-04-24T09:24:06;16.10;;;5.35;;
23078;SDS011;11707;50.830;4.364;2023-04-24T09:26:36;10.82;;;3.15;;
23078;SDS011;11707;50.830;4.364;2023-04-24T09:29:02;9.45;;;3.33;;
23078;SDS011;11707;50.830;4.364;2023-04-24T09:31:31;6.72;;;3.55;;
23078;SDS011;11707;50.830;4.364;2023-04-24T09:34:01;7.72;;;3.80;;
23078;SDS011;11707;50.830;4.364;2023-04-24T09:36:35;10.85;;;3.75;;
23078;SDS011;11707;50.830;4.364;2023-04-24T09:39:09;7.82;;;3.13;;
23078;SDS011;11707;50.830;4.364;2023-04-24T09:41:52;9.05;;;3.55;;
23078;SDS011;11707;50.830;4.364;2023-04-24T09:44:20;7.47;;;2.97;;
23078;SDS011;11707;50.830;4.364;2023-04-24T09:46:51;9.48;;;3.45;;
23078;SDS011;11707;50.830;4.364;2023-04-24T09:49:25;4.95;;;2.70;;
23078;SDS011;11707;50.830;4.364;2023-04-24T09:52:10;12.00;;;4.03;;
23078;SDS011;11707;50.830;4.364;2023-04-24T09:54:39;10.68;;;3.45;;
23078;SDS011;11707;50.830;4.364;2023-04-24T09:57:05;4.97;;;2.60;;
23078;SDS011;11707;50.830;4.364;2023-04-24T09:59:32;12.23;;;3.47;;
23078;SDS011;11707;50.830;4.364;2023-04-24T10:01:59;9.35;;;3.38;;
23078;SDS011;11707;50.830;4.364;2023-04-24T10:04:26;10.63;;;3.80;;
23078;SDS011;11707;50.830;4.364;2023-04-24T10:06:53;9.43;;;3.58;;
23078;SDS011;11707;50.830;4.364;2023-04-24T10:09:24;11.77;;;4.30;;
23078;SDS011;11707;50.830;4.364;2023-04-24T10:11:51;8.88;;;3.15;;
23078;SDS011;11707;50.830;4.364;2023-04-24T10:14:19;5.50;;;2.85;;
23078;SDS011;11707;50.830;4.364;2023-04-24T10:16:48;5.93;;;3.30;;
23078;SDS011;11707;50.830;4.364;2023-04-24T10:19:15;8.55;;;3.90;;
23078;SDS011;11707;50.830;4.364;2023-04-24T10:21:43;7.95;;;3.92;;
23078;SDS011;11707;50.830;4.364;2023-04-24T10:24:16;10.15;;;3.42;;
23078;SDS011;11707;50.830;4.364;2023-04-24T10:26:45;7.78;;;4.03;;
23078;SDS011;11707;50.830;4.364;2023-04-24T10:29:13;8.75;;;3.70;;
23078;SDS011;11707;50.830;4.364;2023-04-24T10:31:42;8.05;;;4.38;;
23078;SDS011;11707;50.830;4.364;2023-04-24T10:34:10;8.13;;;4.63;;
23078;SDS011;11707;50.830;4.364;2023-04-24T10:36:38;7.10;;;4.30;;
23078;SDS011;11707;50.830;4.364;2023-04-24T10:39:07;9.85;;;4.43;;
23078;SDS011;11707;50.830;4.364;2023-04-24T10:41:36;7.78;;;4.00;;
23078;SDS011;11707;50.830;4.364;2023-04-24T10:44:09;11.27;;;4.45;;
23078;SDS011;11707;50.830;4.364;2023-04-24T10:46:39;11.63;;;4.60;;
23078;SDS011;11707;50.830;4.364;2023-04-24T10:49:09;10.98;;;4.28;;
23078;SDS011;11707;50.830;4.364;2023-04-24T10:51:48;7.93;;;4.43;;
23078;SDS011;11707;50.830;4.364;2023-04-24T10:54:27;14.02;;;5.20;;
23078;SDS011;11707;50.830;4.364;2023-04-24T10:59:52;9.73;;;4.22;;
23078;SDS011;11707;50.830;4.364;2023-04-24T11:02:45;8.82;;;4.53;;
23078;SDS011;11707;50.830;4.364;2023-04-24T11:05:18;6.35;;;3.97;;
23078;SDS011;11707;50.830;4.364;2023-04-24T11:10:44;8.38;;;4.88;;
23078;SDS011;11707;50.830;4.364;2023-04-24T11:13:23;8.30;;;4.57;;
23078;SDS011;11707;50.830;4.364;2023-04-24T11:18:40;8.13;;;4.35;;
23078;SDS011;11707;50.830;4.364;2023-04-24T11:21:15;6.93;;;4.10;;
23078;SDS011;11707;50.830;4.364;2023-04-24T11:23:42;5.88;;;3.85;;
23078;SDS011;11707;50.830;4.364;2023-04-24T11:26:18;7.28;;;3.97;;
23078;SDS011;11707;50.830;4.364;2023-04-24T11:28:50;5.88;;;3.97;;
23078;SDS011;11707;50.830;4.364;2023-04-24T11:34:14;8.07;;;3.95;;
23078;SDS011;11707;50.830;4.364;2023-04-24T11:36:47;6.70;;;4.50;;
23078;SDS011;11707;50.830;4.364;2023-04-24T11:39:13;7.88;;;4.50;;
23078;SDS011;11707;50.830;4.364;2023-04-24T11:41:39;7.45;;;4.90;;
23078;SDS011;11707;50.830;4.364;2023-04-24T11:44:06;7.10;;;4.47;;
23078;SDS011;11707;50.830;4.364;2023-04-24T11:46:32;6.78;;;4.50;;
23078;SDS011;11707;50.830;4.364;2023-04-24T11:48:58;6.45;;;4.80;;
23078;SDS011;11707;50.830;4.364;2023-04-24T11:51:26;10.88;;;5.43;;
23078;SDS011;11707;50.830;4.364;2023-04-24T11:53:55;10.93;;;5.75;;
23078;SDS011;11707;50.830;4.364;2023-04-24T11:56:21;13.38;;;7.07;;
23078;SDS011;11707;50.830;4.364;2023-04-24T11:58:53;10.02;;;5.82;;
23078;SDS011;11707;50.830;4.364;2023-04-24T12:01:21;7.85;;;5.32;;
23078;SDS011;11707;50.830;4.364;2023-04-24T12:03:47;10.65;;;5.72;;
23078;SDS011;11707;50.830;4.364;2023-04-24T12:06:14;7.57;;;4.80;;
23078;SDS011;11707;50.830;4.364;2023-04-24T12:08:40;7.70;;;5.10;;
23078;SDS011;11707;50.830;4.364;2023-04-24T12:11:06;7.93;;;5.72;;
23078;SDS011;11707;50.830;4.364;2023-04-24T12:13:35;10.80;;;5.03;;
23078;SDS011;11707;50.830;4.364;2023-04-24T12:16:03;13.75;;;5.25;;
23078;SDS011;11707;50.830;4.364;2023-04-24T12:18:30;8.48;;;4.43;;
23078;SDS011;11707;50.830;4.364;2023-04-24T12:21:14;10.15;;;5.30;;
23078;SDS011;11707;50.830;4.364;2023-04-24T12:23:42;5.80;;;4.60;;
23078;SDS011;11707;50.830;4.364;2023-04-24T12:26:17;6.70;;;4.28;;
23078;SDS011;11707;50.830;4.364;2023-04-24T12:31:16;8.93;;;5.25;;
23078;SDS011;11707;50.830;4.364;2023-04-24T12:33:42;8.20;;;5.68;;
23078;SDS011;11707;50.830;4.364;2023-04-24T12:36:11;9.38;;;4.97;;
23078;SDS011;11707;50.830;4.364;2023-04-24T12:38:38;7.53;;;4.70;;
23078;SDS011;11707;50.830;4.364;2023-04-24T12:41:10;8.43;;;5.05;;
23078;SDS011;11707;50.830;4.364;2023-04-24T12:43:37;7.03;;;4.28;;
23078;SDS011;11707;50.830;4.364;2023-04-24T12:46:03;5.43;;;4.30;;
23078;SDS011;11707;50.830;4.364;2023-04-24T12:48:29;6.28;;;3.13;;
23078;SDS011;11707;50.830;4.364;2023-04-24T12:50:59;5.18;;;3.65;;
23078;SDS011;11707;50.830;4.364;2023-04-24T12:53:28;9.73;;;4.30;;
23078;SDS011;11707;50.830;4.364;2023-04-24T12:55:57;7.18;;;3.95;;
23078;SDS011;11707;50.830;4.364;2023-04-24T12:58:23;7.78;;;3.78;;
23078;SDS011;11707;50.830;4.364;2023-04-24T13:00:48;6.43;;;3.70;;
23078;SDS011;11707;50.830;4.364;2023-04-24T13:03:14;6.90;;;3.28;;
23078;SDS011;11707;50.830;4.364;2023-04-24T13:05:41;5.45;;;3.70;;
23078;SDS011;11707;50.830;4.364;2023-04-24T13:08:08;7.50;;;3.53;;
23078;SDS011;11707;50.830;4.364;2023-04-24T13:10:34;4.35;;;3.17;;
23078;SDS011;11707;50.830;4.364;2023-04-24T13:13:00;7.15;;;3.47;;
23078;SDS011;11707;50.830;4.364;2023-04-24T13:15:28;8.75;;;3.88;;
23078;SDS011;11707;50.830;4.364;2023-04-24T13:17:57;8.73;;;3.72;;
23078;SDS011;11707;50.830;4.364;2023-04-24T13:20:22;7.43;;;3.38;;
23078;SDS011;11707;50.830;4.364;2023-04-24T13:22:48;6.90;;;3.95;;
23078;SDS011;11707;50.830;4.364;2023-04-24T13:25:16;6.75;;;3.30;;
23078;SDS011;11707;50.830;4.364;2023-04-24T13:27:42;9.55;;;4.05;;
23078;SDS011;11707;50.830;4.364;2023-04-24T13:30:08;8.73;;;3.88;;
23078;SDS011;11707;50.830;4.364;2023-04-24T13:32:35;7.45;;;4.28;;
23078;SDS011;11707;50.830;4.364;2023-04-24T13:35:01;6.18;;;2.75;;
23078;SDS011;11707;50.830;4.364;2023-04-24T13:37:27;3.53;;;1.75;;
23078;SDS011;11707;50.830;4.364;2023-04-24T13:39:53;4.32;;;2.35;;
23078;SDS011;11707;50.830;4.364;2023-04-24T13:42:19;11.45;;;3.00;;
23078;SDS011;11707;50.830;4.364;2023-04-24T13:44:45;4.80;;;3.15;;
23078;SDS011;11707;50.830;4.364;2023-04-24T13:47:11;7.15;;;2.47;;
23078;SDS011;11707;50.830;4.364;2023-04-24T13:49:38;5.15;;;2.63;;
23078;SDS011;11707;50.830;4.364;2023-04-24T13:52:04;6.13;;;2.45;;
23078;SDS011;11707;50.830;4.364;2023-04-24T13:54:30;4.38;;;2.33;;
23078;SDS011;11707;50.830;4.364;2023-04-24T13:56:57;5.35;;;2.70;;
23078;SDS011;11707;50.830;4.364;2023-04-24T13:59:25;3.97;;;2.83;;
23078;SDS011;11707;50.830;4.364;2023-04-24T14:01:51;4.68;;;2.80;;
23078;SDS011;11707;50.830;4.364;2023-04-24T14:04:16;8.05;;;2.65;;
23078;SDS011;11707;50.830;4.364;2023-04-24T14:06:44;3.65;;;1.60;;
23078;SDS011;11707;50.830;4.364;2023-04-24T14:09:12;5.97;;;2.63;;
23078;SDS011;11707;50.830;4.364;2023-04-24T14:11:38;5.18;;;2.72;;
23078;SDS011;11707;50.830;4.364;2023-04-24T14:14:04;3.15;;;1.80;;
23078;SDS011;11707;50.830;4.364;2023-04-24T14:16:30;4.72;;;2.28;;
23078;SDS011;11707;50.830;4.364;2023-04-24T14:18:56;6.28;;;2.08;;
23078;SDS011;11707;50.830;4.364;2023-04-24T14:21:22;6.95;;;2.10;;
23078;SDS011;11707;50.830;4.364;2023-04-24T14:23:50;5.03;;;1.90;;
23078;SDS011;11707;50.830;4.364;2023-04-24T14:26:15;6.03;;;1.90;;
23078;SDS011;11707;50.830;4.364;2023-04-24T14:28:41;6.75;;;2.20;;
23078;SDS011;11707;50.830;4.364;2023-04-24T14:31:07;4.32;;;1.88;;
23078;SDS011;11707;50.830;4.364;2023-04-24T14:33:34;3.70;;;1.92;;
23078;SDS011;11707;50.830;4.364;2023-04-24T14:35:59;4.40;;;2.00;;
23078;SDS011;11707;50.830;4.364;2023-04-24T14:38:27;5.38;;;1.60;;
23078;SDS011;11707;50.830;4.364;2023-04-24T14:40:55;4.65;;;1.60;;
23078;SDS011;11707;50.830;4.364;2023-04-24T14:43:23;7.22;;;1.92;;
23078;SDS011;11707;50.830;4.364;2023-04-24T14:45:51;2.20;;;1.30;;
23078;SDS011;11707;50.830;4.364;2023-04-24T14:48:17;4.50;;;1.77;;